createdAt,value
2023-02-23T00:01:53.273Z,9.96
2023-02-23T00:04:19.677Z,9.91
2023-02-23T00:06:46.179Z,9.86
2023-02-23T00:09:22.865Z,9.93
2023-02-23T00:11:54.268Z,9.91
2023-02-23T00:14:21.435Z,9.95
2023-02-23T00:16:47.889Z,9.96
2023-02-23T00:19:14.409Z,10.00
2023-02-23T00:21:41.577Z,9.96
2023-02-23T00:24:10.328Z,9.99
2023-02-23T00:26:40.485Z,10.00
2023-02-23T00:29:10.574Z,10.01
2023-02-23T00:31:38.478Z,10.04
2023-02-23T00:34:05.735Z,9.98
2023-02-23T00:36:33.714Z,9.95
2023-02-23T00:39:21.928Z,9.97
2023-02-23T00:41:49.444Z,9.98
2023-02-23T00:44:16.325Z,9.91
2023-02-23T00:46:43.804Z,9.99
2023-02-23T00:49:11.911Z,9.90
2023-02-23T00:51:39.271Z,9.92
2023-02-23T00:54:06.643Z,9.83
2023-02-23T00:56:33.404Z,9.75
2023-02-23T00:58:59.876Z,9.72
2023-02-23T01:01:26.673Z,9.71
2023-02-23T01:03:53.349Z,9.64
2023-02-23T01:06:20.000Z,9.68
2023-02-23T01:08:50.779Z,9.68
2023-02-23T01:11:22.755Z,9.56
2023-02-23T01:13:51.835Z,9.57
2023-02-23T01:16:20.147Z,9.69
2023-02-23T01:18:48.622Z,9.52
2023-02-23T01:21:21.370Z,9.59
2023-02-23T01:23:49.911Z,9.61
2023-02-23T01:26:19.124Z,9.60
2023-02-23T01:28:50.562Z,9.54
2023-02-23T01:31:18.172Z,9.52
2023-02-23T01:33:45.921Z,9.52
2023-02-23T01:36:15.891Z,9.54
2023-02-23T01:38:42.450Z,9.53
2023-02-23T01:41:09.056Z,9.58
2023-02-23T01:43:37.035Z,9.62
2023-02-23T01:46:03.979Z,9.53
2023-02-23T01:48:39.474Z,9.57
2023-02-23T01:51:15.735Z,9.59
2023-02-23T01:53:48.565Z,9.58
2023-02-23T01:56:20.222Z,9.63
2023-02-23T01:58:47.642Z,9.52
2023-02-23T02:01:14.093Z,9.50
2023-02-23T02:04:06.850Z,9.52
2023-02-23T02:06:35.639Z,9.58
2023-02-23T02:09:07.999Z,9.62
2023-02-23T02:11:38.886Z,9.67
2023-02-23T02:14:20.771Z,9.65
2023-02-23T02:17:06.031Z,9.59
2023-02-23T02:19:37.037Z,9.55
2023-02-23T02:22:57.187Z,9.65
2023-02-23T02:25:42.508Z,9.65
2023-02-23T02:28:23.692Z,9.62
2023-02-23T02:31:21.535Z,9.52
2023-02-23T02:34:19.944Z,9.61
2023-02-23T02:37:10.920Z,9.57
2023-02-23T02:40:18.459Z,9.68
2023-02-23T02:43:11.410Z,9.71
2023-02-23T02:45:54.434Z,9.66
2023-02-23T02:48:30.958Z,9.68
2023-02-23T02:51:12.166Z,9.77
2023-02-23T02:53:43.287Z,9.63
2023-02-23T02:56:10.819Z,9.73
2023-02-23T02:58:39.011Z,9.67
2023-02-23T03:01:31.642Z,9.66
2023-02-23T03:04:18.427Z,9.67
2023-02-23T03:07:14.073Z,9.64
2023-02-23T03:10:08.440Z,9.67
2023-02-23T03:13:17.868Z,9.62
2023-02-23T03:16:34.151Z,9.63
2023-02-23T03:19:30.043Z,9.63
2023-02-23T03:22:21.403Z,9.71
2023-02-23T03:25:12.423Z,9.63
2023-02-23T03:28:05.069Z,9.69
2023-02-23T03:30:59.363Z,9.69
2023-02-23T03:34:04.728Z,9.74
2023-02-23T03:36:52.274Z,9.73
2023-02-23T03:39:37.370Z,9.71
2023-02-23T03:42:26.534Z,9.64
2023-02-23T03:45:13.218Z,9.68
2023-02-23T03:47:59.842Z,9.65
2023-02-23T03:51:00.098Z,9.67
2023-02-23T03:53:53.742Z,9.67
2023-02-23T03:56:41.396Z,9.60
2023-02-23T03:59:27.027Z,9.61
2023-02-23T04:02:13.614Z,9.53
2023-02-23T04:04:59.295Z,9.53
2023-02-23T04:07:44.419Z,9.51
2023-02-23T04:10:29.681Z,9.53
2023-02-23T04:13:16.231Z,9.52
2023-02-23T04:16:01.339Z,9.54
2023-02-23T04:18:30.384Z,9.56
2023-02-23T04:20:58.398Z,9.49
2023-02-23T04:23:25.260Z,9.40
2023-02-23T04:25:52.655Z,9.45
2023-02-23T04:28:20.146Z,9.52
2023-02-23T04:30:46.971Z,9.52
2023-02-23T04:33:13.817Z,9.51
2023-02-23T04:35:40.481Z,9.52
2023-02-23T04:38:06.939Z,9.51
2023-02-23T04:40:33.883Z,9.46
2023-02-23T04:43:00.563Z,9.42
2023-02-23T04:45:27.129Z,9.41
2023-02-23T04:47:53.657Z,9.34
2023-02-23T04:50:20.734Z,9.36
2023-02-23T04:52:47.745Z,9.30
2023-02-23T04:55:22.584Z,9.31
2023-02-23T04:57:49.090Z,9.33
2023-02-23T05:00:16.859Z,9.33
2023-02-23T05:02:43.326Z,9.33
2023-02-23T05:05:09.924Z,9.30
2023-02-23T05:07:36.853Z,9.17
2023-02-23T05:10:04.605Z,9.25
2023-02-23T05:12:31.796Z,9.22
2023-02-23T05:14:58.310Z,9.12
2023-02-23T05:17:24.798Z,9.04
2023-02-23T05:19:52.272Z,9.04
2023-02-23T05:22:18.662Z,9.02
2023-02-23T05:24:45.149Z,9.15
2023-02-23T05:27:13.788Z,9.13
2023-02-23T05:29:40.833Z,9.08
2023-02-23T05:32:07.928Z,9.12
2023-02-23T05:34:35.073Z,9.04
2023-02-23T05:37:01.558Z,9.11
2023-02-23T05:39:27.975Z,9.07
2023-02-23T05:41:54.377Z,9.06
2023-02-23T05:44:20.822Z,9.06
2023-02-23T05:46:50.119Z,8.97
2023-02-23T05:49:16.532Z,8.97
2023-02-23T05:51:43.092Z,9.04
2023-02-23T05:54:10.225Z,9.10
2023-02-23T05:56:36.636Z,9.03
2023-02-23T05:59:04.800Z,9.05
2023-02-23T06:01:31.786Z,9.08
2023-02-23T06:03:58.259Z,9.07
2023-02-23T06:06:25.609Z,9.01
2023-02-23T06:08:53.362Z,8.92
2023-02-23T06:11:20.455Z,8.90
2023-02-23T06:13:47.888Z,8.95
2023-02-23T06:16:14.538Z,8.98
2023-02-23T06:18:40.988Z,8.95
2023-02-23T06:21:07.464Z,8.93
2023-02-23T06:23:33.924Z,9.01
2023-02-23T06:26:00.693Z,9.02
2023-02-23T06:28:28.156Z,9.02
2023-02-23T06:30:55.846Z,8.97
2023-02-23T06:33:25.414Z,9.02
2023-02-23T06:35:52.520Z,9.00
2023-02-23T06:38:19.094Z,8.99
2023-02-23T06:40:45.504Z,8.97
2023-02-23T06:43:11.968Z,9.01
2023-02-23T06:45:38.516Z,9.03
2023-02-23T06:48:05.184Z,9.04
2023-02-23T06:50:31.614Z,9.01
2023-02-23T06:52:58.943Z,9.04
2023-02-23T06:55:25.436Z,9.06
2023-02-23T06:57:52.300Z,9.07
2023-02-23T07:00:19.378Z,9.05
2023-02-23T07:02:46.169Z,9.00
2023-02-23T07:05:12.556Z,9.04
2023-02-23T07:07:39.249Z,9.08
2023-02-23T07:10:06.574Z,9.09
2023-02-23T07:12:33.050Z,9.12
2023-02-23T07:14:59.463Z,9.13
2023-02-23T07:17:25.859Z,9.16
2023-02-23T07:19:52.316Z,9.16
2023-02-23T07:22:18.724Z,9.20
2023-02-23T07:24:45.145Z,9.16
2023-02-23T07:27:11.598Z,9.21
2023-02-23T07:29:38.097Z,9.25
2023-02-23T07:32:05.335Z,9.26
2023-02-23T07:34:31.783Z,9.26
2023-02-23T07:36:58.221Z,9.25
2023-02-23T07:39:25.544Z,9.18
2023-02-23T07:41:51.951Z,9.32
2023-02-23T07:44:18.977Z,9.34
2023-02-23T07:46:46.380Z,9.30
2023-02-23T07:49:12.853Z,9.34
2023-02-23T07:51:40.131Z,9.39
2023-02-23T07:54:06.639Z,9.48
2023-02-23T07:56:35.453Z,9.52
2023-02-23T07:59:02.643Z,9.34
2023-02-23T08:01:29.205Z,9.49
2023-02-23T08:03:55.761Z,9.57
2023-02-23T08:06:22.468Z,9.56
2023-02-23T08:08:48.937Z,9.62
2023-02-23T08:11:15.796Z,9.53
2023-02-23T08:13:42.361Z,9.58
2023-02-23T08:16:08.990Z,9.56
2023-02-23T08:18:35.414Z,9.62
2023-02-23T08:21:03.311Z,9.63
2023-02-23T08:23:31.243Z,9.61
2023-02-23T08:25:59.488Z,9.68
2023-02-23T08:28:26.553Z,9.74
2023-02-23T08:30:53.480Z,9.74
2023-02-23T08:33:20.932Z,9.71
2023-02-23T08:35:47.461Z,9.76
2023-02-23T08:38:14.090Z,9.82
2023-02-23T08:40:41.115Z,9.80
2023-02-23T08:43:07.510Z,9.78
2023-02-23T08:45:33.922Z,9.75
2023-02-23T08:48:00.327Z,9.63
2023-02-23T08:50:27.566Z,9.74
2023-02-23T08:52:54.434Z,9.80
2023-02-23T08:55:21.692Z,9.87
2023-02-23T08:57:50.912Z,9.84
2023-02-23T09:00:17.835Z,9.80
2023-02-23T09:02:45.421Z,9.81
2023-02-23T09:05:12.128Z,9.74
2023-02-23T09:07:39.705Z,9.78
2023-02-23T09:10:06.734Z,9.81
2023-02-23T09:12:33.254Z,9.76
2023-02-23T09:14:59.676Z,9.86
2023-02-23T09:17:26.410Z,9.89
2023-02-23T09:19:52.941Z,9.94
2023-02-23T09:22:19.779Z,10.01
2023-02-23T09:24:46.353Z,10.06
2023-02-23T09:27:12.958Z,10.05
2023-02-23T09:29:43.341Z,9.98
2023-02-23T09:32:10.882Z,10.10
2023-02-23T09:34:37.791Z,10.06
2023-02-23T09:37:05.016Z,10.02
2023-02-23T09:39:38.056Z,9.94
2023-02-23T09:42:23.664Z,10.05
2023-02-23T09:45:24.269Z,10.12
2023-02-23T09:47:54.056Z,9.92
2023-02-23T09:50:25.717Z,10.03
2023-02-23T09:53:00.333Z,10.20
2023-02-23T09:55:27.594Z,10.23
2023-02-23T09:57:54.081Z,10.27
2023-02-23T10:00:25.251Z,10.21
2023-02-23T10:03:14.285Z,10.35
2023-02-23T10:05:47.805Z,10.35
2023-02-23T10:08:30.297Z,10.26
2023-02-23T10:11:30.508Z,10.42
2023-02-23T10:14:03.010Z,10.46
2023-02-23T10:16:58.801Z,10.47
2023-02-23T10:19:31.813Z,10.53
2023-02-23T10:22:06.343Z,10.57
2023-02-23T10:24:42.741Z,10.48
2023-02-23T10:27:20.787Z,10.41
2023-02-23T10:29:56.911Z,10.50
2023-02-23T10:32:38.681Z,10.63
2023-02-23T10:35:21.040Z,10.69
2023-02-23T10:37:48.687Z,10.79
2023-02-23T10:40:17.518Z,10.84
2023-02-23T10:42:44.041Z,10.89
2023-02-23T10:45:24.690Z,10.91
2023-02-23T10:48:04.218Z,10.93
2023-02-23T10:50:31.865Z,10.97
2023-02-23T10:53:18.501Z,11.01
2023-02-23T10:55:45.938Z,11.03
2023-02-23T10:58:19.335Z,11.05
2023-02-23T11:01:00.942Z,11.07
2023-02-23T11:03:30.021Z,11.05
2023-02-23T11:05:56.645Z,11.03
2023-02-23T11:08:31.939Z,11.11
2023-02-23T11:11:28.714Z,10.97
2023-02-23T11:13:57.064Z,11.12
2023-02-23T11:16:25.728Z,11.13
2023-02-23T11:19:02.733Z,11.12
2023-02-23T11:21:35.076Z,11.15
2023-02-23T11:24:15.127Z,11.09
2023-02-23T11:26:43.322Z,11.21
2023-02-23T11:29:39.935Z,11.16
2023-02-23T11:32:19.302Z,11.20
2023-02-23T11:34:48.972Z,11.25
2023-02-23T11:37:20.721Z,11.33
2023-02-23T11:39:58.332Z,11.35
2023-02-23T11:42:35.383Z,11.36
2023-02-23T11:45:03.412Z,11.42
2023-02-23T11:47:30.716Z,11.42
2023-02-23T11:49:57.552Z,11.43
2023-02-23T11:52:25.433Z,11.47
2023-02-23T11:54:56.317Z,11.46
2023-02-23T11:57:34.215Z,11.39
2023-02-23T12:00:08.837Z,11.45
2023-02-23T12:02:48.316Z,11.47
2023-02-23T12:05:25.886Z,11.46
2023-02-23T12:08:12.773Z,11.46
2023-02-23T12:10:42.118Z,11.44
2023-02-23T12:13:14.622Z,11.44
2023-02-23T12:15:48.950Z,11.45
2023-02-23T12:18:53.173Z,11.51
2023-02-23T12:21:24.118Z,11.53
2023-02-23T12:23:53.168Z,11.50
2023-02-23T12:26:22.607Z,11.49
2023-02-23T12:29:00.161Z,11.45
2023-02-23T12:31:33.286Z,11.46
2023-02-23T12:34:03.966Z,11.52
2023-02-23T12:36:43.565Z,11.52
2023-02-23T12:39:33.043Z,11.49
2023-02-23T12:42:25.005Z,11.52
2023-02-23T12:44:58.766Z,11.52
2023-02-23T12:47:44.780Z,11.47
2023-02-23T12:50:27.786Z,11.52
2023-02-23T12:52:57.723Z,11.56
2023-02-23T12:55:41.841Z,11.58
2023-02-23T12:58:22.106Z,11.36
2023-02-23T13:00:50.480Z,11.40
2023-02-23T13:03:35.269Z,11.47
2023-02-23T13:06:21.969Z,11.48
2023-02-23T13:09:03.328Z,11.34
2023-02-23T13:11:48.606Z,11.36
2023-02-23T13:14:20.294Z,11.45
2023-02-23T13:17:15.667Z,11.48
2023-02-23T13:19:50.327Z,11.50
2023-02-23T13:22:33.500Z,11.48
2023-02-23T13:25:04.603Z,11.53
2023-02-23T13:27:37.750Z,11.52
2023-02-23T13:30:05.096Z,11.52
2023-02-23T13:32:33.605Z,11.51
2023-02-23T13:35:01.772Z,11.48
2023-02-23T13:37:34.852Z,11.59
2023-02-23T13:40:19.637Z,11.51
2023-02-23T13:43:18.014Z,11.54
2023-02-23T13:46:02.645Z,11.56
2023-02-23T13:48:56.651Z,11.50
2023-02-23T13:51:49.963Z,11.57
2023-02-23T13:54:18.283Z,11.65
2023-02-23T13:56:49.004Z,11.53
2023-02-23T13:59:18.729Z,11.46
2023-02-23T14:01:47.776Z,11.37
2023-02-23T14:04:16.805Z,11.46
2023-02-23T14:06:53.838Z,11.49
2023-02-23T14:09:42.037Z,11.51
2023-02-23T14:12:16.808Z,11.64
2023-02-23T14:14:45.351Z,11.56
2023-02-23T14:17:34.905Z,11.73
2023-02-23T14:20:01.207Z,11.62
2023-02-23T14:22:28.211Z,11.62
2023-02-23T14:25:32.526Z,11.65
2023-02-23T14:28:04.354Z,11.68
2023-02-23T14:30:53.993Z,11.68
2023-02-23T14:33:48.426Z,11.71
2023-02-23T14:36:24.031Z,11.65
2023-02-23T14:38:56.600Z,11.70
2023-02-23T14:41:25.642Z,11.83
2023-02-23T14:43:59.988Z,11.93
2023-02-23T14:46:27.100Z,11.78
2023-02-23T14:48:59.996Z,11.92
2023-02-23T14:51:44.357Z,11.98
2023-02-23T14:54:34.779Z,11.97
2023-02-23T14:57:04.236Z,11.95
2023-02-23T14:59:39.764Z,12.04
2023-02-23T15:02:17.229Z,12.04
2023-02-23T15:04:43.819Z,12.05
2023-02-23T15:07:33.725Z,12.00
2023-02-23T15:10:01.604Z,11.95
2023-02-23T15:12:37.999Z,12.00
2023-02-23T15:15:10.105Z,12.01
2023-02-23T15:17:39.530Z,12.00
2023-02-23T15:20:16.436Z,12.06
2023-02-23T15:22:46.775Z,12.03
2023-02-23T15:25:26.081Z,12.02
2023-02-23T15:27:53.105Z,12.07
2023-02-23T15:30:31.140Z,12.01
2023-02-23T15:33:01.451Z,12.02
2023-02-23T15:35:28.424Z,12.04
2023-02-23T15:38:05.713Z,12.06
2023-02-23T15:40:40.885Z,12.02
2023-02-23T15:43:09.288Z,11.99
2023-02-23T15:45:40.350Z,11.99
2023-02-23T15:48:18.441Z,12.01
2023-02-23T15:50:50.195Z,11.93
2023-02-23T15:53:30.937Z,11.97
2023-02-23T15:56:03.449Z,11.99
2023-02-23T15:58:35.097Z,11.94
2023-02-23T16:01:09.814Z,11.91
2023-02-23T16:03:39.098Z,11.90
2023-02-23T16:06:20.089Z,11.87
2023-02-23T16:09:05.702Z,11.89
2023-02-23T16:11:38.196Z,11.88
2023-02-23T16:14:06.692Z,11.83
2023-02-23T16:16:34.642Z,11.63
2023-02-23T16:19:02.658Z,11.74
2023-02-23T16:21:33.045Z,11.70
2023-02-23T16:24:01.898Z,11.66
2023-02-23T16:26:34.215Z,11.69
2023-02-23T16:29:02.113Z,11.70
2023-02-23T16:31:44.367Z,11.71
2023-02-23T16:34:34.077Z,11.69
2023-02-23T16:37:03.673Z,11.64
2023-02-23T16:39:31.462Z,11.68
2023-02-23T16:41:59.303Z,11.66
2023-02-23T16:44:34.379Z,11.68
2023-02-23T16:47:08.178Z,11.65
2023-02-23T16:49:34.619Z,11.63
2023-02-23T16:52:01.232Z,11.63
2023-02-23T16:54:27.724Z,11.61
2023-02-23T16:56:55.398Z,11.59
2023-02-23T16:59:22.960Z,11.59
2023-02-23T17:01:50.122Z,11.58
2023-02-23T17:04:19.822Z,11.58
2023-02-23T17:06:48.430Z,11.55
2023-02-23T17:09:14.890Z,11.50
2023-02-23T17:11:42.697Z,11.49
2023-02-23T17:14:25.548Z,11.50
2023-02-23T17:16:52.116Z,11.47
2023-02-23T17:19:20.270Z,11.45
2023-02-23T17:21:46.998Z,11.43
2023-02-23T17:24:13.464Z,11.41
2023-02-23T17:26:41.960Z,11.40
2023-02-23T17:29:08.359Z,11.40
2023-02-23T17:31:36.083Z,11.37
2023-02-23T17:34:02.710Z,11.37
2023-02-23T17:36:29.154Z,11.35
2023-02-23T17:38:58.737Z,11.33
2023-02-23T17:41:25.836Z,11.32
2023-02-23T17:43:52.256Z,11.33
2023-02-23T17:46:19.076Z,11.33
2023-02-23T17:48:47.141Z,11.31
2023-02-23T17:51:16.211Z,11.27
2023-02-23T17:53:43.134Z,11.23
2023-02-23T17:56:10.023Z,11.13
2023-02-23T17:58:37.466Z,11.14
2023-02-23T18:01:05.518Z,11.03
2023-02-23T18:03:33.657Z,11.08
2023-02-23T18:06:11.530Z,11.07
2023-02-23T18:08:38.928Z,10.98
2023-02-23T18:11:05.913Z,11.09
2023-02-23T18:13:33.764Z,11.06
2023-02-23T18:16:09.149Z,11.09
2023-02-23T18:18:38.245Z,11.08
2023-02-23T18:21:05.566Z,11.05
2023-02-23T18:23:32.638Z,11.09
2023-02-23T18:26:12.470Z,11.05
2023-02-23T18:28:41.001Z,11.00
2023-02-23T18:31:07.593Z,11.03
2023-02-23T18:33:35.881Z,11.02
2023-02-23T18:36:04.048Z,11.00
2023-02-23T18:38:30.553Z,10.99
2023-02-23T18:40:57.302Z,10.96
2023-02-23T18:43:23.793Z,10.96
2023-02-23T18:45:50.318Z,10.97
2023-02-23T18:48:16.747Z,10.95
2023-02-23T18:50:43.267Z,10.96
2023-02-23T18:53:10.834Z,10.95
2023-02-23T18:55:37.872Z,10.93
2023-02-23T18:58:05.640Z,10.88
2023-02-23T19:00:32.969Z,10.84
2023-02-23T19:02:59.497Z,10.82
2023-02-23T19:05:25.988Z,10.79
2023-02-23T19:07:52.683Z,10.73
2023-02-23T19:10:19.446Z,10.75
2023-02-23T19:12:47.314Z,10.69
2023-02-23T19:15:13.784Z,10.75
2023-02-23T19:17:42.161Z,10.77
2023-02-23T19:20:13.503Z,10.76
2023-02-23T19:22:40.966Z,10.72
2023-02-23T19:25:11.464Z,10.72
2023-02-23T19:27:38.338Z,10.70
2023-02-23T19:30:05.263Z,10.64
2023-02-23T19:32:31.772Z,10.61
2023-02-23T19:35:00.436Z,10.56
2023-02-23T19:37:26.913Z,10.59
2023-02-23T19:39:53.896Z,10.55
2023-02-23T19:42:20.417Z,10.56
2023-02-23T19:44:46.848Z,10.46
2023-02-23T19:47:13.237Z,10.42
2023-02-23T19:49:39.662Z,10.46
2023-02-23T19:52:08.982Z,10.45
2023-02-23T19:54:37.839Z,10.45
2023-02-23T19:57:04.435Z,10.39
2023-02-23T19:59:30.869Z,10.39
2023-02-23T20:01:57.342Z,10.36
2023-02-23T20:04:23.851Z,10.38
2023-02-23T20:06:50.328Z,10.39
2023-02-23T20:09:16.792Z,10.36
2023-02-23T20:11:45.318Z,10.36
2023-02-23T20:14:13.327Z,10.28
2023-02-23T20:16:40.064Z,10.33
2023-02-23T20:19:07.554Z,10.33
2023-02-23T20:21:34.151Z,10.33
2023-02-23T20:24:05.534Z,10.33
2023-02-23T20:26:35.447Z,10.29
2023-02-23T20:29:04.250Z,10.29
2023-02-23T20:31:33.327Z,10.29
2023-02-23T20:34:09.815Z,10.29
2023-02-23T20:36:36.784Z,10.27
2023-02-23T20:39:03.837Z,10.27
2023-02-23T20:41:31.477Z,10.24
2023-02-23T20:43:58.132Z,10.21
2023-02-23T20:46:24.594Z,10.22
2023-02-23T20:48:51.359Z,10.17
2023-02-23T20:51:18.963Z,10.18
2023-02-23T20:53:46.808Z,10.17
2023-02-23T20:56:16.195Z,10.14
2023-02-23T20:58:42.971Z,10.11
2023-02-23T21:01:18.344Z,10.14
2023-02-23T21:03:47.353Z,10.12
2023-02-23T21:06:15.934Z,10.10
2023-02-23T21:08:42.657Z,10.12
2023-02-23T21:11:09.132Z,10.13
2023-02-23T21:13:39.257Z,10.12
2023-02-23T21:16:06.128Z,10.13
2023-02-23T21:18:32.702Z,10.13
2023-02-23T21:21:09.672Z,10.14
2023-02-23T21:23:43.214Z,10.11
2023-02-23T21:26:13.140Z,10.10
2023-02-23T21:28:46.396Z,10.02
2023-02-23T21:31:14.054Z,9.88
2023-02-23T21:33:42.046Z,9.82
2023-02-23T21:36:12.495Z,9.97
2023-02-23T21:38:41.166Z,10.00
2023-02-23T21:41:08.097Z,9.79
2023-02-23T21:43:38.834Z,9.84
2023-02-23T21:46:13.247Z,9.84
2023-02-23T21:48:43.268Z,9.69
2023-02-23T21:51:12.102Z,9.68
2023-02-23T21:53:39.320Z,9.77
2023-02-23T21:56:23.559Z,9.72
2023-02-23T21:58:52.361Z,9.73
2023-02-23T22:01:25.182Z,9.64
2023-02-23T22:03:51.830Z,9.63
2023-02-23T22:06:20.759Z,9.63
2023-02-23T22:08:49.892Z,9.61
2023-02-23T22:11:19.298Z,9.60
2023-02-23T22:13:49.992Z,9.49
2023-02-23T22:16:19.305Z,9.51
2023-02-23T22:18:46.239Z,9.50
2023-02-23T22:21:13.083Z,9.56
2023-02-23T22:23:43.219Z,9.51
2023-02-23T22:26:09.865Z,9.44
2023-02-23T22:28:36.649Z,9.44
2023-02-23T22:31:08.462Z,9.27
2023-02-23T22:33:35.986Z,9.37
2023-02-23T22:36:12.918Z,9.33
2023-02-23T22:38:41.292Z,9.40
2023-02-23T22:41:10.577Z,9.39
2023-02-23T22:43:43.026Z,9.38
2023-02-23T22:46:09.529Z,9.38
2023-02-23T22:48:36.214Z,9.31
2023-02-23T22:51:02.975Z,9.35
2023-02-23T22:53:29.533Z,9.28
2023-02-23T22:55:59.581Z,9.22
2023-02-23T22:58:26.837Z,9.32
2023-02-23T23:01:06.460Z,9.30
2023-02-23T23:03:39.493Z,9.22
2023-02-23T23:06:10.789Z,9.28
2023-02-23T23:08:40.323Z,9.27
2023-02-23T23:11:13.572Z,9.26
2023-02-23T23:13:48.506Z,9.29
2023-02-23T23:16:31.094Z,9.21
2023-02-23T23:19:05.957Z,9.26
2023-02-23T23:21:34.829Z,9.23
2023-02-23T23:24:05.664Z,9.13
2023-02-23T23:26:34.716Z,9.09
2023-02-23T23:29:04.747Z,9.09
2023-02-23T23:31:34.559Z,9.21
2023-02-23T23:34:06.314Z,9.21
2023-02-23T23:36:37.195Z,9.26
2023-02-23T23:39:04.509Z,9.14
2023-02-23T23:41:35.304Z,9.22
2023-02-23T23:44:05.059Z,9.12
2023-02-23T23:46:35.344Z,9.18
2023-02-23T23:49:05.945Z,9.09
2023-02-23T23:51:39.023Z,9.17
2023-02-23T23:54:07.354Z,9.17
2023-02-23T23:56:37.216Z,9.06
2023-02-23T23:59:12.797Z,9.06
